sensor_id;sensor_type;location;lat;lon;timestamp;pressure;altitude;pressure_sealevel;temperature;humidity
20455;BME280;10386;54.314;10.022;2024-01-15T00:00:21;99183.81;;;2.98;100.00
20455;BME280;10386;54.314;10.022;2024-01-15T00:02:49;99178.66;;;2.95;100.00
20455;BME280;10386;54.314;10.022;2024-01-15T00:05:16;99173.00;;;2.99;100.00
20455;BME280;10386;54.314;10.022;2024-01-15T00:07:42;99175.50;;;2.88;100.00
20455;BME280;10386;54.314;10.022;2024-01-15T00:10:09;99205.34;;;2.70;100.00
20455;BME280;10386;54.314;10.022;2024-01-15T00:12:36;99203.31;;;2.33;100.00
20455;BME280;10386;54.314;10.022;2024-01-15T00:15:03;99197.03;;;2.06;100.00
20455;BME280;10386;54.314;10.022;2024-01-15T00:17:31;99190.53;;;2.10;100.00
20455;BME280;10386;54.314;10.022;2024-01-15T00:19:58;99188.03;;;2.21;100.00
20455;BME280;10386;54.314;10.022;2024-01-15T00:22:26;99173.66;;;2.36;100.00
20455;BME280;10386;54.314;10.022;2024-01-15T00:24:53;99180.94;;;2.34;100.00
20455;BME280;10386;54.314;10.022;2024-01-15T00:27:21;99169.94;;;2.39;100.00
20455;BME280;10386;54.314;10.022;2024-01-15T00:29:48;99165.03;;;2.45;100.00
20455;BME280;10386;54.314;10.022;2024-01-15T00:32:16;99153.84;;;2.53;100.00
20455;BME280;10386;54.314;10.022;2024-01-15T00:34:43;99138.25;;;2.45;100.00
20455;BME280;10386;54.314;10.022;2024-01-15T00:37:10;99141.81;;;2.46;100.00
20455;BME280;10386;54.314;10.022;2024-01-15T00:39:37;99128.78;;;2.54;100.00
20455;BME280;10386;54.314;10.022;2024-01-15T00:42:04;99127.75;;;2.56;100.00
20455;BME280;10386;54.314;10.022;2024-01-15T00:44:31;99127.97;;;2.66;100.00
20455;BME280;10386;54.314;10.022;2024-01-15T00:46:58;99111.81;;;2.67;100.00
20455;BME280;10386;54.314;10.022;2024-01-15T00:49:24;99121.25;;;2.72;100.00
20455;BME280;10386;54.314;10.022;2024-01-15T00:51:51;99119.22;;;2.76;100.00
20455;BME280;10386;54.314;10.022;2024-01-15T00:54:18;99127.00;;;2.67;100.00
20455;BME280;10386;54.314;10.022;2024-01-15T00:56:45;99121.69;;;2.79;100.00
20455;BME280;10386;54.314;10.022;2024-01-15T00:59:12;99124.38;;;2.79;100.00
20455;BME280;10386;54.314;10.022;2024-01-15T01:01:42;99115.19;;;2.83;100.00
20455;BME280;10386;54.314;10.022;2024-01-15T01:04:10;99106.59;;;2.78;100.00
20455;BME280;10386;54.314;10.022;2024-01-15T01:06:37;99114.31;;;2.82;100.00
20455;BME280;10386;54.314;10.022;2024-01-15T01:09:04;99114.41;;;2.81;100.00
20455;BME280;10386;54.314;10.022;2024-01-15T01:11:31;99118.28;;;2.89;100.00
20455;BME280;10386;54.314;10.022;2024-01-15T01:13:58;99121.28;;;2.85;100.00
20455;BME280;10386;54.314;10.022;2024-01-15T01:16:25;99123.34;;;2.94;100.00
20455;BME280;10386;54.314;10.022;2024-01-15T01:18:52;99121.72;;;2.91;100.00
20455;BME280;10386;54.314;10.022;2024-01-15T01:21:19;99114.44;;;2.93;100.00
20455;BME280;10386;54.314;10.022;2024-01-15T01:23:46;99104.38;;;2.97;100.00
20455;BME280;10386;54.314;10.022;2024-01-15T01:26:17;99103.16;;;2.88;100.00
20455;BME280;10386;54.314;10.022;2024-01-15T01:28:44;99105.84;;;2.88;100.00
20455;BME280;10386;54.314;10.022;2024-01-15T01:31:11;99109.69;;;2.84;100.00
20455;BME280;10386;54.314;10.022;2024-01-15T01:33:39;99105.63;;;2.79;100.00
20455;BME280;10386;54.314;10.022;2024-01-15T01:36:08;99112.50;;;2.83;100.00
20455;BME280;10386;54.314;10.022;2024-01-15T01:38:37;99114.84;;;2.75;100.00
20455;BME280;10386;54.314;10.022;2024-01-15T01:41:04;99110.31;;;2.75;100.00
20455;BME280;10386;54.314;10.022;2024-01-15T01:43:31;99112.66;;;2.67;100.00
20455;BME280;10386;54.314;10.022;2024-01-15T01:46:00;99112.34;;;2.72;100.00
20455;BME280;10386;54.314;10.022;2024-01-15T01:48:28;99118.41;;;2.62;100.00
20455;BME280;10386;54.314;10.022;2024-01-15T01:51:01;99105.28;;;2.71;100.00
20455;BME280;10386;54.314;10.022;2024-01-15T01:53:29;99104.41;;;2.70;100.00
20455;BME280;10386;54.314;10.022;2024-01-15T01:55:57;99103.03;;;2.65;100.00
20455;BME280;10386;54.314;10.022;2024-01-15T01:58:24;99108.16;;;2.68;100.00
20455;BME280;10386;54.314;10.022;2024-01-15T02:00:52;99112.44;;;2.70;100.00
20455;BME280;10386;54.314;10.022;2024-01-15T02:03:20;99101.44;;;2.75;100.00
20455;BME280;10386;54.314;10.022;2024-01-15T02:05:48;99108.06;;;2.69;100.00
20455;BME280;10386;54.314;10.022;2024-01-15T02:08:16;99113.63;;;2.67;100.00
20455;BME280;10386;54.314;10.022;2024-01-15T02:10:43;99114.78;;;2.63;100.00
20455;BME280;10386;54.314;10.022;2024-01-15T02:13:10;99115.03;;;2.72;100.00
20455;BME280;10386;54.314;10.022;2024-01-15T02:15:37;99107.84;;;2.72;100.00
20455;BME280;10386;54.314;10.022;2024-01-15T02:18:05;99111.06;;;2.65;100.00
20455;BME280;10386;54.314;10.022;2024-01-15T02:20:33;99114.28;;;2.70;100.00
20455;BME280;10386;54.314;10.022;2024-01-15T02:23:24;99128.09;;;2.64;100.00
20455;BME280;10386;54.314;10.022;2024-01-15T02:25:51;99125.28;;;2.66;100.00
20455;BME280;10386;54.314;10.022;2024-01-15T02:28:18;99130.25;;;2.71;100.00
20455;BME280;10386;54.314;10.022;2024-01-15T02:30:45;99130.59;;;2.79;100.00
20455;BME280;10386;54.314;10.022;2024-01-15T02:33:12;99139.59;;;2.78;100.00
20455;BME280;10386;54.314;10.022;2024-01-15T02:35:40;99122.19;;;2.71;100.00
20455;BME280;10386;54.314;10.022;2024-01-15T02:38:07;99137.44;;;2.71;100.00
20455;BME280;10386;54.314;10.022;2024-01-15T02:40:35;99144.25;;;2.63;100.00
20455;BME280;10386;54.314;10.022;2024-01-15T02:43:02;99148.19;;;2.57;100.00
20455;BME280;10386;54.314;10.022;2024-01-15T02:45:29;99145.81;;;2.53;100.00
20455;BME280;10386;54.314;10.022;2024-01-15T02:47:55;99155.66;;;2.52;100.00
20455;BME280;10386;54.314;10.022;2024-01-15T02:50:23;99152.16;;;2.38;100.00
20455;BME280;10386;54.314;10.022;2024-01-15T02:52:49;99151.97;;;2.41;100.00
20455;BME280;10386;54.314;10.022;2024-01-15T02:55:16;99160.25;;;2.50;100.00
20455;BME280;10386;54.314;10.022;2024-01-15T02:57:43;99163.16;;;2.33;100.00
20455;BME280;10386;54.314;10.022;2024-01-15T03:00:11;99159.88;;;2.42;100.00
20455;BME280;10386;54.314;10.022;2024-01-15T03:02:41;99171.91;;;2.49;100.00
20455;BME280;10386;54.314;10.022;2024-01-15T03:05:13;99168.28;;;2.50;100.00
20455;BME280;10386;54.314;10.022;2024-01-15T03:07:40;99164.63;;;2.51;100.00
20455;BME280;10386;54.314;10.022;2024-01-15T03:10:08;99168.47;;;2.61;100.00
20455;BME280;10386;54.314;10.022;2024-01-15T03:12:34;99177.94;;;2.53;100.00
20455;BME280;10386;54.314;10.022;2024-01-15T03:15:02;99183.59;;;2.48;100.00
20455;BME280;10386;54.314;10.022;2024-01-15T03:17:29;99182.66;;;2.35;100.00
20455;BME280;10386;54.314;10.022;2024-01-15T03:19:56;99173.78;;;2.35;100.00
20455;BME280;10386;54.314;10.022;2024-01-15T03:22:23;99182.97;;;2.31;100.00
20455;BME280;10386;54.314;10.022;2024-01-15T03:24:50;99184.97;;;2.27;100.00
20455;BME280;10386;54.314;10.022;2024-01-15T03:27:17;99203.06;;;2.24;100.00
20455;BME280;10386;54.314;10.022;2024-01-15T03:29:44;99206.69;;;2.23;100.00
20455;BME280;10386;54.314;10.022;2024-01-15T03:32:10;99200.00;;;2.16;100.00
20455;BME280;10386;54.314;10.022;2024-01-15T03:34:37;99206.41;;;2.13;100.00
20455;BME280;10386;54.314;10.022;2024-01-15T03:37:04;99205.44;;;2.14;100.00
20455;BME280;10386;54.314;10.022;2024-01-15T03:39:31;99210.13;;;2.11;100.00
20455;BME280;10386;54.314;10.022;2024-01-15T03:41:58;99207.94;;;2.17;100.00
20455;BME280;10386;54.314;10.022;2024-01-15T03:44:26;99214.41;;;2.27;100.00
20455;BME280;10386;54.314;10.022;2024-01-15T03:46:52;99220.16;;;2.21;100.00
20455;BME280;10386;54.314;10.022;2024-01-15T03:49:19;99220.56;;;2.15;100.00
20455;BME280;10386;54.314;10.022;2024-01-15T03:51:46;99226.19;;;2.25;100.00
20455;BME280;10386;54.314;10.022;2024-01-15T03:54:13;99219.72;;;2.15;100.00
20455;BME280;10386;54.314;10.022;2024-01-15T03:56:43;99218.56;;;2.19;100.00
20455;BME280;10386;54.314;10.022;2024-01-15T03:59:09;99227.44;;;2.19;100.00
20455;BME280;10386;54.314;10.022;2024-01-15T04:01:36;99229.53;;;2.28;100.00
20455;BME280;10386;54.314;10.022;2024-01-15T04:04:03;99229.84;;;2.24;100.00
20455;BME280;10386;54.314;10.022;2024-01-15T04:06:30;99230.78;;;2.23;100.00
20455;BME280;10386;54.314;10.022;2024-01-15T04:08:58;99228.69;;;2.28;100.00
20455;BME280;10386;54.314;10.022;2024-01-15T04:11:25;99233.06;;;2.29;100.00
20455;BME280;10386;54.314;10.022;2024-01-15T04:13:52;99235.00;;;2.27;100.00
20455;BME280;10386;54.314;10.022;2024-01-15T04:16:18;99240.41;;;2.39;100.00
20455;BME280;10386;54.314;10.022;2024-01-15T04:18:46;99233.91;;;2.43;100.00
20455;BME280;10386;54.314;10.022;2024-01-15T04:21:13;99253.22;;;2.34;100.00
20455;BME280;10386;54.314;10.022;2024-01-15T04:23:40;99249.78;;;2.32;100.00
20455;BME280;10386;54.314;10.022;2024-01-15T04:26:07;99257.81;;;2.32;100.00
20455;BME280;10386;54.314;10.022;2024-01-15T04:28:34;99262.19;;;2.47;100.00
20455;BME280;10386;54.314;10.022;2024-01-15T04:31:00;99266.41;;;2.37;100.00
20455;BME280;10386;54.314;10.022;2024-01-15T04:33:27;99268.13;;;2.52;100.00
20455;BME280;10386;54.314;10.022;2024-01-15T04:35:55;99280.56;;;2.39;100.00
20455;BME280;10386;54.314;10.022;2024-01-15T04:38:21;99277.91;;;2.25;100.00
20455;BME280;10386;54.314;10.022;2024-01-15T04:40:48;99274.44;;;2.23;100.00
20455;BME280;10386;54.314;10.022;2024-01-15T04:43:15;99274.66;;;2.20;100.00
20455;BME280;10386;54.314;10.022;2024-01-15T04:45:42;99276.66;;;2.17;100.00
20455;BME280;10386;54.314;10.022;2024-01-15T04:48:09;99284.69;;;2.17;100.00
20455;BME280;10386;54.314;10.022;2024-01-15T04:50:36;99285.34;;;2.20;100.00
20455;BME280;10386;54.314;10.022;2024-01-15T04:53:03;99295.50;;;2.15;100.00
20455;BME280;10386;54.314;10.022;2024-01-15T04:55:30;99289.63;;;2.09;100.00
20455;BME280;10386;54.314;10.022;2024-01-15T04:57:56;99295.69;;;2.26;100.00
20455;BME280;10386;54.314;10.022;2024-01-15T05:00:23;99298.53;;;2.37;100.00
20455;BME280;10386;54.314;10.022;2024-01-15T05:02:50;99312.31;;;2.45;100.00
20455;BME280;10386;54.314;10.022;2024-01-15T05:05:17;99300.94;;;2.42;100.00
20455;BME280;10386;54.314;10.022;2024-01-15T05:07:44;99304.97;;;2.49;100.00
20455;BME280;10386;54.314;10.022;2024-01-15T05:10:10;99309.44;;;2.48;100.00
20455;BME280;10386;54.314;10.022;2024-01-15T05:12:37;99315.38;;;2.53;100.00
20455;BME280;10386;54.314;10.022;2024-01-15T05:15:05;99310.97;;;2.52;100.00
20455;BME280;10386;54.314;10.022;2024-01-15T05:17:31;99307.91;;;2.44;100.00
20455;BME280;10386;54.314;10.022;2024-01-15T05:19:58;99307.16;;;2.56;100.00
20455;BME280;10386;54.314;10.022;2024-01-15T05:22:26;99316.25;;;2.54;100.00
20455;BME280;10386;54.314;10.022;2024-01-15T05:24:52;99310.97;;;2.52;100.00
20455;BME280;10386;54.314;10.022;2024-01-15T05:27:19;99320.06;;;2.50;100.00
20455;BME280;10386;54.314;10.022;2024-01-15T05:29:46;99323.78;;;2.47;100.00
20455;BME280;10386;54.314;10.022;2024-01-15T05:32:13;99326.38;;;2.49;100.00
20455;BME280;10386;54.314;10.022;2024-01-15T05:34:40;99337.09;;;2.35;100.00
20455;BME280;10386;54.314;10.022;2024-01-15T05:37:07;99329.91;;;2.35;100.00
20455;BME280;10386;54.314;10.022;2024-01-15T05:39:33;99330.00;;;2.48;100.00
20455;BME280;10386;54.314;10.022;2024-01-15T05:42:00;99344.63;;;2.42;100.00
20455;BME280;10386;54.314;10.022;2024-01-15T05:44:28;99350.19;;;2.39;100.00
20455;BME280;10386;54.314;10.022;2024-01-15T05:46:55;99347.50;;;2.39;100.00
20455;BME280;10386;54.314;10.022;2024-01-15T05:49:22;99353.81;;;2.52;100.00
20455;BME280;10386;54.314;10.022;2024-01-15T05:51:49;99355.72;;;2.50;100.00
20455;BME280;10386;54.314;10.022;2024-01-15T05:54:20;99353.81;;;2.38;100.00
20455;BME280;10386;54.314;10.022;2024-01-15T05:56:47;99361.47;;;2.44;100.00
20455;BME280;10386;54.314;10.022;2024-01-15T05:59:14;99356.09;;;2.44;100.00
20455;BME280;10386;54.314;10.022;2024-01-15T06:01:41;99371.78;;;2.36;100.00
20455;BME280;10386;54.314;10.022;2024-01-15T06:04:08;99369.59;;;2.29;100.00
20455;BME280;10386;54.314;10.022;2024-01-15T06:06:35;99366.59;;;2.19;100.00
20455;BME280;10386;54.314;10.022;2024-01-15T06:09:02;99367.16;;;2.10;100.00
20455;BME280;10386;54.314;10.022;2024-01-15T06:11:32;99366.84;;;2.01;100.00
20455;BME280;10386;54.314;10.022;2024-01-15T06:13:59;99371.25;;;2.02;100.00
20455;BME280;10386;54.314;10.022;2024-01-15T06:16:29;99376.69;;;2.00;100.00
20455;BME280;10386;54.314;10.022;2024-01-15T06:18:55;99375.06;;;1.98;100.00
20455;BME280;10386;54.314;10.022;2024-01-15T06:21:22;99381.72;;;1.91;100.00
20455;BME280;10386;54.314;10.022;2024-01-15T06:23:49;99375.78;;;1.86;100.00
20455;BME280;10386;54.314;10.022;2024-01-15T06:26:16;99381.72;;;1.91;100.00
20455;BME280;10386;54.314;10.022;2024-01-15T06:28:43;99380.41;;;1.98;100.00
20455;BME280;10386;54.314;10.022;2024-01-15T06:31:10;99394.84;;;1.95;100.00
20455;BME280;10386;54.314;10.022;2024-01-15T06:33:37;99403.72;;;1.96;100.00
20455;BME280;10386;54.314;10.022;2024-01-15T06:36:05;99400.56;;;1.89;100.00
20455;BME280;10386;54.314;10.022;2024-01-15T06:38:32;99402.28;;;1.90;100.00
20455;BME280;10386;54.314;10.022;2024-01-15T06:41:00;99402.19;;;1.92;100.00
20455;BME280;10386;54.314;10.022;2024-01-15T06:43:26;99402.66;;;1.84;100.00
20455;BME280;10386;54.314;10.022;2024-01-15T06:45:53;99401.69;;;1.85;100.00
20455;BME280;10386;54.314;10.022;2024-01-15T06:48:20;99404.97;;;1.90;100.00
20455;BME280;10386;54.314;10.022;2024-01-15T06:50:47;99396.13;;;1.74;100.00
20455;BME280;10386;54.314;10.022;2024-01-15T06:53:14;99398.44;;;1.65;100.00
20455;BME280;10386;54.314;10.022;2024-01-15T06:55:41;99412.84;;;1.62;100.00
20455;BME280;10386;54.314;10.022;2024-01-15T06:58:08;99420.28;;;1.57;100.00
20455;BME280;10386;54.314;10.022;2024-01-15T07:00:35;99417.88;;;1.53;100.00
20455;BME280;10386;54.314;10.022;2024-01-15T07:03:02;99410.22;;;1.47;100.00
20455;BME280;10386;54.314;10.022;2024-01-15T07:05:29;99427.88;;;1.49;100.00
20455;BME280;10386;54.314;10.022;2024-01-15T07:07:57;99440.13;;;1.53;100.00
20455;BME280;10386;54.314;10.022;2024-01-15T07:10:24;99445.81;;;1.63;100.00
20455;BME280;10386;54.314;10.022;2024-01-15T07:12:52;99449.78;;;1.71;100.00
20455;BME280;10386;54.314;10.022;2024-01-15T07:15:20;99453.72;;;1.80;100.00
20455;BME280;10386;54.314;10.022;2024-01-15T07:17:47;99462.53;;;1.82;100.00
20455;BME280;10386;54.314;10.022;2024-01-15T07:20:14;99460.44;;;1.87;100.00
20455;BME280;10386;54.314;10.022;2024-01-15T07:22:41;99467.84;;;1.97;100.00
20455;BME280;10386;54.314;10.022;2024-01-15T07:25:08;99461.91;;;1.92;100.00
20455;BME280;10386;54.314;10.022;2024-01-15T07:27:34;99462.75;;;1.93;100.00
20455;BME280;10386;54.314;10.022;2024-01-15T07:30:01;99460.25;;;1.90;100.00
20455;BME280;10386;54.314;10.022;2024-01-15T07:32:30;99463.47;;;1.81;100.00
20455;BME280;10386;54.314;10.022;2024-01-15T07:34:58;99462.63;;;1.80;100.00
20455;BME280;10386;54.314;10.022;2024-01-15T07:37:26;99466.66;;;1.87;100.00
20455;BME280;10386;54.314;10.022;2024-01-15T07:39:53;99474.28;;;1.79;100.00
20455;BME280;10386;54.314;10.022;2024-01-15T07:42:20;99477.03;;;1.78;100.00
20455;BME280;10386;54.314;10.022;2024-01-15T07:44:46;99488.44;;;1.81;100.00
20455;BME280;10386;54.314;10.022;2024-01-15T07:47:13;99485.75;;;1.81;100.00
20455;BME280;10386;54.314;10.022;2024-01-15T07:49:40;99490.56;;;1.75;100.00
20455;BME280;10386;54.314;10.022;2024-01-15T07:52:07;99490.84;;;1.70;100.00
20455;BME280;10386;54.314;10.022;2024-01-15T07:54:38;99497.59;;;1.77;100.00
20455;BME280;10386;54.314;10.022;2024-01-15T07:57:04;99508.63;;;1.71;100.00
20455;BME280;10386;54.314;10.022;2024-01-15T07:59:31;99507.22;;;1.64;100.00
20455;BME280;10386;54.314;10.022;2024-01-15T08:01:59;99515.41;;;1.61;100.00
20455;BME280;10386;54.314;10.022;2024-01-15T08:04:26;99515.69;;;1.57;100.00
20455;BME280;10386;54.314;10.022;2024-01-15T08:06:54;99535.19;;;1.59;100.00
20455;BME280;10386;54.314;10.022;2024-01-15T08:09:21;99528.59;;;1.64;100.00
20455;BME280;10386;54.314;10.022;2024-01-15T08:11:48;99530.84;;;1.56;100.00
20455;BME280;10386;54.314;10.022;2024-01-15T08:14:16;99526.13;;;1.46;100.00
20455;BME280;10386;54.314;10.022;2024-01-15T08:16:42;99524.91;;;1.51;100.00
20455;BME280;10386;54.314;10.022;2024-01-15T08:19:10;99523.94;;;1.52;100.00
20455;BME280;10386;54.314;10.022;2024-01-15T08:21:37;99528.28;;;1.55;100.00
20455;BME280;10386;54.314;10.022;2024-01-15T08:24:05;99529.91;;;1.57;100.00
20455;BME280;10386;54.314;10.022;2024-01-15T08:26:32;99531.19;;;1.50;100.00
20455;BME280;10386;54.314;10.022;2024-01-15T08:28:59;99532.75;;;1.54;100.00
20455;BME280;10386;54.314;10.022;2024-01-15T08:31:26;99530.69;;;1.59;100.00
20455;BME280;10386;54.314;10.022;2024-01-15T08:33:54;99536.97;;;1.58;100.00
20455;BME280;10386;54.314;10.022;2024-01-15T08:36:23;99542.16;;;1.61;100.00
20455;BME280;10386;54.314;10.022;2024-01-15T08:38:53;99552.19;;;1.58;100.00
20455;BME280;10386;54.314;10.022;2024-01-15T08:41:20;99565.19;;;1.48;100.00
20455;BME280;10386;54.314;10.022;2024-01-15T08:43:47;99561.38;;;1.52;100.00
20455;BME280;10386;54.314;10.022;2024-01-15T08:46:14;99556.91;;;1.53;100.00
20455;BME280;10386;54.314;10.022;2024-01-15T08:48:41;99565.88;;;1.52;100.00
20455;BME280;10386;54.314;10.022;2024-01-15T08:51:08;99567.63;;;1.53;100.00
20455;BME280;10386;54.314;10.022;2024-01-15T08:53:35;99572.41;;;1.46;100.00
20455;BME280;10386;54.314;10.022;2024-01-15T08:56:02;99575.88;;;1.48;100.00
20455;BME280;10386;54.314;10.022;2024-01-15T08:58:29;99570.19;;;1.39;100.00
20455;BME280;10386;54.314;10.022;2024-01-15T09:00:59;99587.16;;;1.38;100.00
20455;BME280;10386;54.314;10.022;2024-01-15T09:03:26;99580.78;;;1.40;100.00
20455;BME280;10386;54.314;10.022;2024-01-15T09:05:54;99590.84;;;1.35;100.00
20455;BME280;10386;54.314;10.022;2024-01-15T09:08:21;99596.31;;;1.34;100.00
20455;BME280;10386;54.314;10.022;2024-01-15T09:10:48;99592.84;;;1.32;100.00
20455;BME280;10386;54.314;10.022;2024-01-15T09:13:15;99614.69;;;1.23;100.00
20455;BME280;10386;54.314;10.022;2024-01-15T09:15:43;99614.84;;;1.20;100.00
20455;BME280;10386;54.314;10.022;2024-01-15T09:18:10;99617.00;;;1.14;100.00
20455;BME280;10386;54.314;10.022;2024-01-15T09:20:37;99615.50;;;1.08;100.00
20455;BME280;10386;54.314;10.022;2024-01-15T09:23:05;99627.13;;;1.07;100.00
20455;BME280;10386;54.314;10.022;2024-01-15T09:25:31;99626.13;;;1.10;100.00
20455;BME280;10386;54.314;10.022;2024-01-15T09:27:58;99638.59;;;1.09;100.00
20455;BME280;10386;54.314;10.022;2024-01-15T09:30:25;99640.31;;;1.10;100.00
20455;BME280;10386;54.314;10.022;2024-01-15T09:32:52;99641.84;;;1.16;100.00
20455;BME280;10386;54.314;10.022;2024-01-15T09:35:19;99646.22;;;1.17;100.00
20455;BME280;10386;54.314;10.022;2024-01-15T09:37:50;99638.38;;;1.14;100.00
20455;BME280;10386;54.314;10.022;2024-01-15T09:40:20;99646.72;;;1.08;100.00
20455;BME280;10386;54.314;10.022;2024-01-15T09:42:48;99641.91;;;1.14;100.00
20455;BME280;10386;54.314;10.022;2024-01-15T09:45:16;99650.63;;;1.18;100.00
20455;BME280;10386;54.314;10.022;2024-01-15T09:47:43;99658.56;;;1.19;100.00
20455;BME280;10386;54.314;10.022;2024-01-15T09:50:13;99657.59;;;1.20;100.00
20455;BME280;10386;54.314;10.022;2024-01-15T09:52:43;99660.28;;;1.20;100.00
20455;BME280;10386;54.314;10.022;2024-01-15T09:55:11;99662.88;;;1.22;100.00
20455;BME280;10386;54.314;10.022;2024-01-15T09:57:39;99669.19;;;1.21;100.00
20455;BME280;10386;54.314;10.022;2024-01-15T10:00:07;99672.00;;;1.18;100.00
20455;BME280;10386;54.314;10.022;2024-01-15T10:02:37;99665.88;;;1.33;100.00
20455;BME280;10386;54.314;10.022;2024-01-15T10:05:04;99661.69;;;1.27;100.00
20455;BME280;10386;54.314;10.022;2024-01-15T10:07:34;99668.16;;;1.40;100.00
20455;BME280;10386;54.314;10.022;2024-01-15T10:10:05;99667.72;;;1.47;100.00
20455;BME280;10386;54.314;10.022;2024-01-15T10:12:32;99672.56;;;1.56;100.00
20455;BME280;10386;54.314;10.022;2024-01-15T10:14:59;99676.22;;;1.38;100.00
20455;BME280;10386;54.314;10.022;2024-01-15T10:17:26;99678.97;;;1.54;100.00
20455;BME280;10386;54.314;10.022;2024-01-15T10:19:54;99681.56;;;1.38;100.00
20455;BME280;10386;54.314;10.022;2024-01-15T10:22:22;99676.31;;;1.37;100.00
20455;BME280;10386;54.314;10.022;2024-01-15T10:24:49;99682.03;;;1.46;100.00
20455;BME280;10386;54.314;10.022;2024-01-15T10:27:16;99681.97;;;1.48;100.00
20455;BME280;10386;54.314;10.022;2024-01-15T10:29:43;99674.59;;;1.36;100.00
20455;BME280;10386;54.314;10.022;2024-01-15T10:32:11;99681.56;;;1.38;100.00
20455;BME280;10386;54.314;10.022;2024-01-15T10:34:40;99685.28;;;1.36;100.00
20455;BME280;10386;54.314;10.022;2024-01-15T10:37:09;99693.63;;;1.30;100.00
20455;BME280;10386;54.314;10.022;2024-01-15T10:39:36;99700.38;;;1.37;100.00
20455;BME280;10386;54.314;10.022;2024-01-15T10:42:05;99696.50;;;1.42;100.00
20455;BME280;10386;54.314;10.022;2024-01-15T10:44:34;99701.72;;;1.29;100.00
20455;BME280;10386;54.314;10.022;2024-01-15T10:47:02;99715.00;;;1.30;100.00
20455;BME280;10386;54.314;10.022;2024-01-15T10:49:32;99697.16;;;1.31;100.00
20455;BME280;10386;54.314;10.022;2024-01-15T10:52:03;99714.22;;;1.28;100.00
20455;BME280;10386;54.314;10.022;2024-01-15T10:54:31;99723.31;;;1.24;100.00
20455;BME280;10386;54.314;10.022;2024-01-15T10:56:59;99717.19;;;1.22;100.00
20455;BME280;10386;54.314;10.022;2024-01-15T10:59:27;99732.38;;;1.22;100.00
20455;BME280;10386;54.314;10.022;2024-01-15T11:01:54;99732.00;;;1.29;100.00
20455;BME280;10386;54.314;10.022;2024-01-15T11:04:22;99722.94;;;1.32;100.00
20455;BME280;10386;54.314;10.022;2024-01-15T11:06:53;99732.69;;;1.33;100.00
20455;BME280;10386;54.314;10.022;2024-01-15T11:09:23;99737.97;;;1.34;100.00
20455;BME280;10386;54.314;10.022;2024-01-15T11:11:54;99730.63;;;1.37;100.00
20455;BME280;10386;54.314;10.022;2024-01-15T11:14:40;99730.16;;;1.30;100.00
20455;BME280;10386;54.314;10.022;2024-01-15T11:17:11;99730.97;;;1.32;100.00
20455;BME280;10386;54.314;10.022;2024-01-15T11:22:10;99748.19;;;1.43;100.00
20455;BME280;10386;54.314;10.022;2024-01-15T11:24:39;99747.00;;;1.32;100.00
20455;BME280;10386;54.314;10.022;2024-01-15T11:27:07;99751.25;;;1.19;100.00
20455;BME280;10386;54.314;10.022;2024-01-15T11:29:36;99748.88;;;1.30;100.00
20455;BME280;10386;54.314;10.022;2024-01-15T11:32:04;99745.41;;;1.28;100.00
20455;BME280;10386;54.314;10.022;2024-01-15T11:34:54;99746.22;;;1.30;100.00
20455;BME280;10386;54.314;10.022;2024-01-15T11:37:26;99749.66;;;1.48;100.00
20455;BME280;10386;54.314;10.022;2024-01-15T11:39:54;99739.06;;;1.47;100.00
20455;BME280;10386;54.314;10.022;2024-01-15T11:42:26;99745.41;;;1.61;100.00
20455;BME280;10386;54.314;10.022;2024-01-15T11:44:54;99742.50;;;1.66;100.00
20455;BME280;10386;54.314;10.022;2024-01-15T11:50:06;99744.69;;;1.75;100.00
20455;BME280;10386;54.314;10.022;2024-01-15T11:52:38;99741.31;;;1.71;100.00
20455;BME280;10386;54.314;10.022;2024-01-15T11:55:17;99742.13;;;1.89;100.00
20455;BME280;10386;54.314;10.022;2024-01-15T11:57:50;99745.56;;;1.75;100.00
20455;BME280;10386;54.314;10.022;2024-01-15T12:00:18;99742.88;;;1.75;100.00
20455;BME280;10386;54.314;10.022;2024-01-15T12:02:46;99747.75;;;1.84;100.00
20455;BME280;10386;54.314;10.022;2024-01-15T12:05:16;99758.44;;;1.84;100.00
20455;BME280;10386;54.314;10.022;2024-01-15T12:07:45;99750.75;;;1.78;100.00
20455;BME280;10386;54.314;10.022;2024-01-15T12:10:18;99751.94;;;1.73;100.00
20455;BME280;10386;54.314;10.022;2024-01-15T12:15:39;99750.13;;;1.73;100.00
20455;BME280;10386;54.314;10.022;2024-01-15T12:18:10;99748.47;;;1.71;100.00
20455;BME280;10386;54.314;10.022;2024-01-15T12:20:37;99743.84;;;1.74;100.00
20455;BME280;10386;54.314;10.022;2024-01-15T12:23:05;99752.09;;;1.70;100.00
20455;BME280;10386;54.314;10.022;2024-01-15T12:25:36;99747.47;;;1.73;100.00
20455;BME280;10386;54.314;10.022;2024-01-15T12:28:04;99744.94;;;1.70;100.00
20455;BME280;10386;54.314;10.022;2024-01-15T12:30:33;99755.38;;;1.75;100.00
20455;BME280;10386;54.314;10.022;2024-01-15T12:33:05;99750.13;;;1.73;100.00
20455;BME280;10386;54.314;10.022;2024-01-15T12:35:36;99754.91;;;1.84;100.00
20455;BME280;10386;54.314;10.022;2024-01-15T12:38:03;99748.84;;;1.80;100.00
20455;BME280;10386;54.314;10.022;2024-01-15T12:40:32;99752.66;;;1.76;100.00
20455;BME280;10386;54.314;10.022;2024-01-15T12:43:05;99749.81;;;1.79;100.00
20455;BME280;10386;54.314;10.022;2024-01-15T12:45:32;99755.38;;;1.75;100.00
20455;BME280;10386;54.314;10.022;2024-01-15T12:47:59;99759.72;;;1.77;100.00
20455;BME280;10386;54.314;10.022;2024-01-15T12:50:27;99750.75;;;1.78;100.00
20455;BME280;10386;54.314;10.022;2024-01-15T12:52:54;99752.72;;;1.75;100.00
20455;BME280;10386;54.314;10.022;2024-01-15T12:55:21;99762.72;;;1.71;100.00
20455;BME280;10386;54.314;10.022;2024-01-15T12:57:47;99766.97;;;1.75;100.00
20455;BME280;10386;54.314;10.022;2024-01-15T13:00:16;99772.75;;;1.66;100.00